createdAt,value
2022-12-08T00:00:16.032Z,46.90
2022-12-08T00:03:03.814Z,47.20
2022-12-08T00:06:09.857Z,47.05
2022-12-08T00:09:15.488Z,45.97
2022-12-08T00:12:05.325Z,46.83
2022-12-08T00:14:54.566Z,51.50
2022-12-08T00:17:41.724Z,49.65
2022-12-08T00:20:28.841Z,53.80
2022-12-08T00:23:15.927Z,55.15
2022-12-08T00:26:06.924Z,53.58
2022-12-08T00:29:03.161Z,50.95
2022-12-08T00:31:50.548Z,54.05
2022-12-08T00:34:37.654Z,54.63
2022-12-08T00:40:48.245Z,55.50
2022-12-08T00:43:36.419Z,51.50
2022-12-08T00:46:24.540Z,51.95
2022-12-08T00:49:12.121Z,53.30
2022-12-08T00:51:59.221Z,54.10
2022-12-08T00:54:46.554Z,53.30
2022-12-08T00:57:33.751Z,53.40
2022-12-08T01:00:21.552Z,52.05
2022-12-08T01:03:12.884Z,51.95
2022-12-08T01:06:04.155Z,49.35
2022-12-08T01:15:03.939Z,46.90
2022-12-08T01:21:23.659Z,49.70
2022-12-08T01:24:07.540Z,46.95
2022-12-08T01:26:54.662Z,46.15
2022-12-08T01:32:54.538Z,44.33
2022-12-08T01:35:41.605Z,47.15
2022-12-08T01:38:28.728Z,46.45
2022-12-08T01:41:25.281Z,45.00
2022-12-08T01:44:13.918Z,44.83
2022-12-08T01:53:35.121Z,38.75
2022-12-08T01:56:56.993Z,40.95
2022-12-08T02:00:07.361Z,40.10
2022-12-08T02:06:11.987Z,39.80
2022-12-08T02:09:01.423Z,39.83
2022-12-08T02:12:14.141Z,40.35
2022-12-08T02:15:05.012Z,42.75
2022-12-08T02:21:14.634Z,40.90
2022-12-08T02:24:23.172Z,41.63
2022-12-08T02:27:32.525Z,43.13
2022-12-08T02:30:43.902Z,42.47
2022-12-08T02:37:30.872Z,43.45
2022-12-08T02:40:24.229Z,44.33
2022-12-08T02:43:29.844Z,45.00
2022-12-08T02:46:35.719Z,43.67
2022-12-08T02:49:34.737Z,43.53
2022-12-08T02:52:21.728Z,44.88
2022-12-08T02:55:15.490Z,45.85
2022-12-08T03:01:41.177Z,45.15
2022-12-08T03:04:50.977Z,44.33
2022-12-08T03:07:53.517Z,43.28
2022-12-08T03:10:44.523Z,43.67
2022-12-08T03:13:41.589Z,45.47
2022-12-08T03:16:31.326Z,47.10
2022-12-08T03:19:22.417Z,44.22
2022-12-08T03:22:11.828Z,43.53
2022-12-08T03:24:59.072Z,41.22
2022-12-08T03:27:46.299Z,42.10
2022-12-08T03:30:38.738Z,43.13
2022-12-08T03:33:31.518Z,42.17
2022-12-08T03:36:19.481Z,39.70
2022-12-08T03:39:06.677Z,41.35
2022-12-08T03:42:07.930Z,43.07
2022-12-08T03:50:58.219Z,36.80
2022-12-08T03:53:45.946Z,38.78
2022-12-08T03:56:36.106Z,38.45
2022-12-08T04:06:05.685Z,37.47
2022-12-08T04:12:03.092Z,37.75
2022-12-08T04:18:13.674Z,34.47
2022-12-08T04:21:01.490Z,34.72
2022-12-08T04:23:49.050Z,33.78
2022-12-08T04:26:36.122Z,33.60
2022-12-08T04:29:23.236Z,32.80
2022-12-08T04:32:10.411Z,34.28
2022-12-08T04:34:57.529Z,33.45
2022-12-08T04:37:44.639Z,32.65
2022-12-08T04:40:31.922Z,33.92
2022-12-08T04:43:19.204Z,31.83
2022-12-08T04:46:08.290Z,33.10
2022-12-08T04:48:55.465Z,31.98
2022-12-08T04:51:42.696Z,30.85
2022-12-08T04:54:29.868Z,30.10
2022-12-08T04:57:17.204Z,30.30
2022-12-08T05:00:05.739Z,30.33
2022-12-08T05:02:53.262Z,29.10
2022-12-08T05:05:41.929Z,29.45
2022-12-08T05:08:29.552Z,27.60
2022-12-08T05:11:16.710Z,29.55
2022-12-08T05:14:03.755Z,27.92
2022-12-08T05:16:50.966Z,28.63
2022-12-08T05:19:38.143Z,28.65
2022-12-08T05:22:25.213Z,27.60
2022-12-08T05:28:46.257Z,27.05
2022-12-08T05:31:40.554Z,27.67
2022-12-08T05:34:29.064Z,26.45
2022-12-08T05:37:18.307Z,26.23
2022-12-08T05:40:09.993Z,27.33
2022-12-08T05:45:46.788Z,26.90
2022-12-08T05:48:34.969Z,17.25
2022-12-08T05:51:24.242Z,17.38
2022-12-08T05:54:11.532Z,18.55
2022-12-08T05:57:00.443Z,19.05
2022-12-08T05:59:47.667Z,18.50
2022-12-08T06:02:37.612Z,20.23
2022-12-08T06:05:24.849Z,19.02
2022-12-08T06:08:12.894Z,18.55
2022-12-08T06:11:00.675Z,19.50
2022-12-08T06:13:48.739Z,19.60
2022-12-08T06:16:36.459Z,19.40
2022-12-08T06:19:26.531Z,18.92
2022-12-08T06:22:13.803Z,20.33
2022-12-08T06:25:01.915Z,20.98
2022-12-08T06:27:56.239Z,22.08
2022-12-08T06:30:45.086Z,19.98
2022-12-08T06:33:33.756Z,19.98
2022-12-08T06:36:23.381Z,22.05
2022-12-08T06:39:11.310Z,21.85
2022-12-08T06:42:17.090Z,21.60
2022-12-08T06:45:04.531Z,22.77
2022-12-08T06:47:52.468Z,22.88
2022-12-08T06:50:39.608Z,21.42
2022-12-08T06:53:26.885Z,21.90
2022-12-08T06:56:16.530Z,23.80
2022-12-08T06:59:04.220Z,22.80
2022-12-08T07:01:51.838Z,22.60
2022-12-08T07:04:39.164Z,22.65
2022-12-08T07:07:26.345Z,24.10
2022-12-08T07:10:14.155Z,23.42
2022-12-08T07:13:04.193Z,25.23
2022-12-08T07:15:52.676Z,23.75
2022-12-08T07:18:41.670Z,25.55
2022-12-08T07:21:29.126Z,42.55
2022-12-08T07:24:16.269Z,11.40
2022-12-08T07:27:03.562Z,11.63
2022-12-08T07:29:50.810Z,11.45
2022-12-08T07:32:39.797Z,13.80
2022-12-08T07:35:27.154Z,12.05
2022-12-08T07:38:23.497Z,12.40
2022-12-08T07:41:25.651Z,13.30
2022-12-08T07:44:13.135Z,13.40
2022-12-08T07:47:00.241Z,12.90
2022-12-08T07:49:47.376Z,11.80
2022-12-08T07:52:35.359Z,9.85
2022-12-08T07:55:22.562Z,11.63
2022-12-08T07:58:14.700Z,10.57
2022-12-08T08:01:02.449Z,11.05
2022-12-08T08:03:50.553Z,11.10
2022-12-08T08:06:37.956Z,11.05
2022-12-08T08:09:25.157Z,10.75
2022-12-08T08:15:22.121Z,10.10
2022-12-08T08:18:09.616Z,11.35
2022-12-08T08:20:58.099Z,9.85
2022-12-08T08:23:45.999Z,10.18
2022-12-08T08:26:36.938Z,10.10
2022-12-08T08:29:24.398Z,11.07
2022-12-08T08:32:11.934Z,11.15
2022-12-08T08:34:59.113Z,10.00
2022-12-08T08:37:49.120Z,9.18
2022-12-08T08:40:36.733Z,9.40
2022-12-08T08:43:34.468Z,7.00
2022-12-08T08:46:25.270Z,8.52
2022-12-08T08:49:19.381Z,8.18
2022-12-08T08:52:07.623Z,8.15
2022-12-08T08:55:03.813Z,8.30
2022-12-08T08:58:20.870Z,8.63
2022-12-08T09:01:08.616Z,6.68
2022-12-08T09:03:56.673Z,8.05
2022-12-08T09:06:45.218Z,9.10
2022-12-08T09:09:32.402Z,8.32
2022-12-08T09:12:22.735Z,7.40
2022-12-08T09:15:12.457Z,7.03
2022-12-08T09:17:59.651Z,6.53
2022-12-08T09:20:46.940Z,7.05
2022-12-08T09:23:35.945Z,7.05
2022-12-08T09:26:23.947Z,7.28
2022-12-08T09:29:11.626Z,8.07
2022-12-08T09:31:59.055Z,7.30
2022-12-08T09:34:51.789Z,6.72
2022-12-08T09:37:39.528Z,7.57
2022-12-08T09:40:27.183Z,6.63
2022-12-08T09:43:45.726Z,6.28
2022-12-08T09:46:34.578Z,6.32
2022-12-08T09:49:32.524Z,21.25
2022-12-08T09:52:27.950Z,4.90
2022-12-08T09:55:34.185Z,5.25
2022-12-08T09:58:38.574Z,6.90
2022-12-08T10:01:32.251Z,14.80
2022-12-08T10:04:26.659Z,2.90
2022-12-08T10:07:18.347Z,3.63
2022-12-08T10:10:38.857Z,2.75
2022-12-08T10:13:38.774Z,2.70
2022-12-08T10:16:41.052Z,3.65
2022-12-08T10:19:29.001Z,3.58
2022-12-08T10:22:45.083Z,4.18
2022-12-08T10:25:43.197Z,3.45
2022-12-08T10:28:33.452Z,2.42
2022-12-08T10:31:24.223Z,2.58
2022-12-08T10:34:20.683Z,2.67
2022-12-08T10:37:10.144Z,3.50
2022-12-08T10:40:03.485Z,2.28
2022-12-08T10:42:53.362Z,2.70
2022-12-08T10:45:44.698Z,2.30
2022-12-08T10:48:31.985Z,2.28
2022-12-08T10:51:25.071Z,2.42
2022-12-08T10:54:34.481Z,2.63
2022-12-08T10:57:23.610Z,2.80
2022-12-08T11:00:16.324Z,2.83
2022-12-08T11:03:04.827Z,2.05
2022-12-08T11:05:56.481Z,1.98
2022-12-08T11:08:56.496Z,1.80
2022-12-08T11:11:56.705Z,1.80
2022-12-08T11:14:43.957Z,2.13
2022-12-08T11:17:41.689Z,2.17
2022-12-08T11:20:40.840Z,2.10
2022-12-08T11:23:29.542Z,2.30
2022-12-08T11:26:33.711Z,2.10
2022-12-08T11:29:21.262Z,2.13
2022-12-08T11:32:14.124Z,2.40
2022-12-08T11:35:06.433Z,1.95
2022-12-08T11:38:13.425Z,2.28
2022-12-08T11:41:16.742Z,2.40
2022-12-08T11:44:32.449Z,2.80
2022-12-08T11:47:34.286Z,2.75
2022-12-08T11:50:30.900Z,2.90
2022-12-08T11:53:29.851Z,2.50
2022-12-08T11:56:22.609Z,2.50
2022-12-08T11:59:19.989Z,2.50
2022-12-08T12:02:18.283Z,2.47
2022-12-08T12:05:11.446Z,2.40
2022-12-08T12:12:39.614Z,2.42
2022-12-08T12:15:52.145Z,2.17
2022-12-08T12:18:46.384Z,2.70
2022-12-08T12:21:39.641Z,2.55
2022-12-08T12:24:36.019Z,2.80
2022-12-08T12:27:39.125Z,2.50
2022-12-08T12:30:28.383Z,2.80
2022-12-08T12:33:17.818Z,2.80
2022-12-08T12:36:07.618Z,3.22
2022-12-08T12:39:01.882Z,2.85
2022-12-08T12:41:55.859Z,3.15
2022-12-08T12:44:44.440Z,2.85
2022-12-08T12:47:54.315Z,2.92
2022-12-08T12:50:49.493Z,2.85
2022-12-08T12:53:37.302Z,2.95
2022-12-08T12:56:48.406Z,1.70
2022-12-08T12:59:40.828Z,1.92
2022-12-08T13:02:44.218Z,1.95
2022-12-08T13:05:45.847Z,2.70
2022-12-08T13:08:33.388Z,3.05
2022-12-08T13:11:22.495Z,3.28
2022-12-08T13:14:27.234Z,3.30
2022-12-08T13:17:24.935Z,3.10
2022-12-08T13:20:24.557Z,3.22
2022-12-08T13:23:36.962Z,3.30
2022-12-08T13:26:26.876Z,3.17
2022-12-08T13:29:19.693Z,3.13
2022-12-08T13:32:09.851Z,3.58
2022-12-08T13:35:00.163Z,3.00
2022-12-08T13:37:54.886Z,3.60
2022-12-08T13:40:43.873Z,3.65
2022-12-08T13:44:39.196Z,2.95
2022-12-08T13:51:07.023Z,3.00
2022-12-08T13:57:05.558Z,3.05
2022-12-08T13:59:52.720Z,2.95
2022-12-08T14:02:47.844Z,3.25
2022-12-08T14:06:11.280Z,3.30
2022-12-08T14:09:02.384Z,3.28
2022-12-08T14:12:04.313Z,3.67
2022-12-08T14:15:04.740Z,2.78
2022-12-08T14:17:56.743Z,3.20
2022-12-08T14:21:18.972Z,2.80
2022-12-08T14:23:51.225Z,2.75
2022-12-08T14:26:38.751Z,3.20
2022-12-08T14:29:32.984Z,3.00
2022-12-08T14:32:32.613Z,3.20
2022-12-08T14:35:25.230Z,3.35
2022-12-08T14:38:15.038Z,3.22
2022-12-08T14:41:07.843Z,2.90
2022-12-08T14:44:00.435Z,3.28
2022-12-08T14:47:28.399Z,3.33
2022-12-08T14:50:42.104Z,3.60
2022-12-08T14:53:43.311Z,3.42
2022-12-08T14:56:51.980Z,3.22
2022-12-08T14:59:41.040Z,3.40
2022-12-08T15:02:32.028Z,3.25
2022-12-08T15:05:21.068Z,3.30
2022-12-08T15:08:12.797Z,3.72
2022-12-08T15:11:27.283Z,3.42
2022-12-08T15:14:28.817Z,3.58
2022-12-08T15:17:48.450Z,3.28
2022-12-08T15:20:38.562Z,3.72
2022-12-08T15:23:42.610Z,3.42
2022-12-08T15:26:39.440Z,3.22
2022-12-08T15:29:29.133Z,3.00
2022-12-08T15:32:22.631Z,4.40
2022-12-08T15:35:14.514Z,3.75
2022-12-08T15:38:01.598Z,3.47
2022-12-08T15:40:49.425Z,3.92
2022-12-08T15:43:36.497Z,3.67
2022-12-08T15:46:23.665Z,3.78
2022-12-08T15:49:17.263Z,3.80
2022-12-08T15:52:11.444Z,3.90
2022-12-08T15:54:58.782Z,3.20
2022-12-08T16:00:56.333Z,5.65
2022-12-08T16:04:27.593Z,5.47
2022-12-08T16:10:00.507Z,5.43
2022-12-08T16:13:55.750Z,5.68
2022-12-08T16:16:19.588Z,22.23
2022-12-08T16:19:08.940Z,6.70
2022-12-08T16:25:17.668Z,6.30
2022-12-08T16:28:29.268Z,39.28
2022-12-08T16:31:16.669Z,2.95
2022-12-08T16:34:05.920Z,3.15
2022-12-08T16:36:53.083Z,3.20
2022-12-08T16:39:45.631Z,2.80
2022-12-08T16:42:40.492Z,5.15
2022-12-08T16:45:29.739Z,5.53
2022-12-08T16:48:16.845Z,5.10
2022-12-08T16:51:04.535Z,5.55
2022-12-08T16:53:52.024Z,5.63
2022-12-08T16:56:39.150Z,6.15
2022-12-08T16:59:26.329Z,6.38
2022-12-08T17:02:16.435Z,7.15
2022-12-08T17:05:04.708Z,13.93
2022-12-08T17:07:53.631Z,10.82
2022-12-08T17:10:42.022Z,9.43
2022-12-08T17:13:31.663Z,7.00
2022-12-08T17:16:19.517Z,5.80
2022-12-08T17:19:07.213Z,4.70
2022-12-08T17:21:54.307Z,5.03
2022-12-08T17:24:41.462Z,5.15
2022-12-08T17:27:28.592Z,5.28
2022-12-08T17:30:17.601Z,4.88
2022-12-08T17:33:04.762Z,5.32
2022-12-08T17:35:54.106Z,5.40
2022-12-08T17:38:41.997Z,5.45
2022-12-08T17:41:29.910Z,5.10
2022-12-08T17:44:19.081Z,5.25
2022-12-08T17:47:06.286Z,5.78
2022-12-08T17:49:53.433Z,5.65
2022-12-08T17:52:40.553Z,6.38
2022-12-08T17:55:27.611Z,6.78
2022-12-08T17:58:14.684Z,7.32
2022-12-08T18:01:08.076Z,8.70
2022-12-08T18:03:55.361Z,6.88
2022-12-08T18:06:42.511Z,6.90
2022-12-08T18:09:31.240Z,6.68
2022-12-08T18:12:23.379Z,6.90
2022-12-08T18:15:16.686Z,6.97
2022-12-08T18:18:03.906Z,6.20
2022-12-08T18:20:51.125Z,6.63
2022-12-08T18:23:39.122Z,6.90
2022-12-08T18:26:26.381Z,7.13
2022-12-08T18:29:13.624Z,6.22
2022-12-08T18:32:00.800Z,5.78
2022-12-08T18:34:47.875Z,6.57
2022-12-08T18:37:35.132Z,7.00
2022-12-08T18:40:22.580Z,6.82
2022-12-08T18:43:09.963Z,6.40
2022-12-08T18:46:04.717Z,6.80
2022-12-08T18:48:52.660Z,6.57
2022-12-08T18:51:40.069Z,6.55
2022-12-08T18:54:57.738Z,6.40
2022-12-08T18:57:37.564Z,6.35
2022-12-08T19:00:24.914Z,6.05
2022-12-08T19:03:12.114Z,6.13
2022-12-08T19:06:04.578Z,6.78
2022-12-08T19:08:51.704Z,5.97
2022-12-08T19:11:38.940Z,6.97
2022-12-08T19:14:28.558Z,7.55
2022-12-08T19:17:16.132Z,7.13
2022-12-08T19:20:04.633Z,7.10
2022-12-08T19:22:52.367Z,6.78
2022-12-08T19:25:40.282Z,7.35
2022-12-08T19:28:27.457Z,6.85
2022-12-08T19:31:14.650Z,7.28
2022-12-08T19:34:01.908Z,6.68
2022-12-08T19:36:49.018Z,6.60
2022-12-08T19:39:54.814Z,6.35
2022-12-08T19:43:00.568Z,6.15
2022-12-08T19:45:47.884Z,6.30
2022-12-08T19:48:35.033Z,5.82
2022-12-08T19:51:22.066Z,6.03
2022-12-08T19:54:09.781Z,6.80
2022-12-08T19:56:57.054Z,6.03
2022-12-08T19:59:44.313Z,5.75
2022-12-08T20:02:31.558Z,6.65
2022-12-08T20:05:19.012Z,6.63
2022-12-08T20:08:06.468Z,6.53
2022-12-08T20:10:56.006Z,6.10
2022-12-08T20:13:45.661Z,6.47
2022-12-08T20:16:33.143Z,6.80
2022-12-08T20:19:20.356Z,6.10
2022-12-08T20:22:07.404Z,6.10
2022-12-08T20:24:59.437Z,6.30
2022-12-08T20:27:48.010Z,6.00
2022-12-08T20:30:38.457Z,5.80
2022-12-08T20:33:25.617Z,5.78
2022-12-08T20:36:18.036Z,5.93
2022-12-08T20:39:05.183Z,5.60
2022-12-08T20:41:54.492Z,5.82
2022-12-08T20:44:44.513Z,6.07
2022-12-08T20:47:31.873Z,5.78
2022-12-08T20:50:19.318Z,5.68
2022-12-08T20:53:06.804Z,5.63
2022-12-08T20:55:54.780Z,5.55
2022-12-08T20:58:42.935Z,6.18
2022-12-08T21:01:30.385Z,5.70
2022-12-08T21:04:18.023Z,5.70
2022-12-08T21:07:05.559Z,5.45
2022-12-08T21:09:53.654Z,6.15
2022-12-08T21:12:40.927Z,6.07
2022-12-08T21:15:28.677Z,6.05
2022-12-08T21:18:17.327Z,5.93
2022-12-08T21:21:08.301Z,5.85
2022-12-08T21:23:55.341Z,6.65
2022-12-08T21:26:42.779Z,6.20
2022-12-08T21:29:30.172Z,6.05
2022-12-08T21:32:18.316Z,6.18
2022-12-08T21:35:06.833Z,5.95
2022-12-08T21:37:54.277Z,5.47
2022-12-08T21:40:41.877Z,10.52
2022-12-08T21:43:29.758Z,5.50
2022-12-08T21:46:19.451Z,5.95
2022-12-08T21:49:07.184Z,5.65
2022-12-08T21:51:54.665Z,5.80
2022-12-08T21:58:42.183Z,5.75
2022-12-08T22:01:47.000Z,5.70
2022-12-08T22:04:36.696Z,5.90
2022-12-08T22:07:24.099Z,6.00
2022-12-08T22:10:11.787Z,5.80
2022-12-08T22:12:59.530Z,6.28
2022-12-08T22:15:56.295Z,5.95
2022-12-08T22:18:43.807Z,6.00
2022-12-08T22:21:30.996Z,5.85
2022-12-08T22:24:18.061Z,6.32
2022-12-08T22:27:05.259Z,6.68
2022-12-08T22:29:52.506Z,6.22
2022-12-08T22:32:39.902Z,6.43
2022-12-08T22:35:27.352Z,6.60
2022-12-08T22:38:14.706Z,7.40
2022-12-08T22:41:04.573Z,6.15
2022-12-08T22:43:51.948Z,6.38
2022-12-08T22:46:39.314Z,6.28
2022-12-08T22:49:26.587Z,6.38
2022-12-08T22:52:13.713Z,6.55
2022-12-08T22:55:00.753Z,5.78
2022-12-08T22:57:47.852Z,5.82
2022-12-08T23:00:35.399Z,6.15
2022-12-08T23:03:22.686Z,6.32
2022-12-08T23:06:13.236Z,6.35
2022-12-08T23:09:00.640Z,6.50
2022-12-08T23:11:48.006Z,5.55
2022-12-08T23:14:35.418Z,5.90
2022-12-08T23:17:22.791Z,5.90
2022-12-08T23:20:10.803Z,5.75
2022-12-08T23:22:58.315Z,6.15
2022-12-08T23:25:45.354Z,6.07
2022-12-08T23:28:32.475Z,6.03
2022-12-08T23:31:20.176Z,5.68
2022-12-08T23:34:07.369Z,5.55
2022-12-08T23:36:54.754Z,6.70
2022-12-08T23:39:41.863Z,6.82
2022-12-08T23:42:30.179Z,6.30
2022-12-08T23:45:17.617Z,6.38
2022-12-08T23:48:04.884Z,5.80
2022-12-08T23:50:52.056Z,7.28
2022-12-08T23:53:39.711Z,19.30
2022-12-08T23:56:30.411Z,7.28
2022-12-08T23:59:18.221Z,20.92
